Time;durP1;ratioP1;P1;durP2;ratioP2;P2;SDS_P1;SDS_P2;PMS_P1;PMS_P2;Temp;Humidity;BMP_temperature;BMP_pressure;BME280_temperature;BME280_humidity;BME280_pressure;Samples;Min_cycle;Max_cycle;Signal;HPM_P1;HPM_P2
2021/03/20 00:01:59;;;;;;;3.30;1.17;;;;;;;18.57;30.68;102163.16;31751066;28;20290;-63
2021/03/20 00:17:00;;;;;;;3.67;1.07;;;;;;;18.46;31.35;102179.59;31660046;28;20292;-62
2021/03/20 00:32:01;;;;;;;3.83;1.83;;;;;;;18.38;31.40;102182.69;31707286;28;20293;-63
2021/03/20 00:47:02;;;;;;;5.33;1.80;;;;;;;18.35;31.68;102185.53;31726684;28;20050;-64
2021/03/20 01:02:03;;;;;;;4.93;1.83;;;;;;;18.29;31.89;102179.78;31718372;28;20303;-63
2021/03/20 01:17:04;;;;;;;5.30;2.10;;;;;;;18.24;31.87;102172.16;31697914;27;20023;-63
2021/03/20 01:32:05;;;;;;;4.27;2.00;;;;;;;18.21;31.99;102167.09;31716413;28;20043;-62
2021/03/20 01:47:11;;;;;;;5.78;1.80;;;;;;;18.12;31.96;102152.69;31694003;28;20339;-63
2021/03/20 02:02:12;;;;;;;4.60;2.40;;;;;;;18.06;32.08;102166.19;31711654;28;20039;-61
2021/03/20 02:17:19;;;;;;;4.50;2.28;;;;;;;17.98;32.08;102156.13;31734187;28;20342;-63
2021/03/20 02:32:42;;;;;;;;;;;;;;;17.95;32.12;102164.19;31701206;28;20073;-61
2021/03/20 02:47:51;;;;;;;4.15;2.30;;;;;;;17.86;32.14;102148.09;31690727;28;19938;-63
2021/03/20 03:02:52;;;;;;;5.18;2.25;;;;;;;17.83;32.02;102149.13;31676473;28;20036;-62
2021/03/20 03:18:00;;;;;;;4.22;2.33;;;;;;;17.79;32.21;102139.66;31680643;28;20088;-62
2021/03/20 03:33:07;;;;;;;4.28;2.15;;;;;;;17.76;31.93;102147.75;31688642;28;20047;-63
2021/03/20 03:48:08;;;;;;;4.87;2.00;;;;;;;17.70;32.26;102167.34;31689492;27;20475;-61
2021/03/20 04:03:15;;;;;;;4.03;1.95;;;;;;;17.73;32.13;102161.06;31783973;27;20028;-62
2021/03/20 04:18:26;;;;;;;3.50;1.70;;;;;;;17.70;32.27;102164.72;31761990;28;20037;-62
2021/03/20 04:33:29;;;;;;;4.30;2.00;;;;;;;17.65;32.33;102158.03;31761834;28;20285;-62
2021/03/20 04:48:38;;;;;;;4.45;2.40;;;;;;;17.58;32.17;102157.53;31660525;28;20587;-64
2021/03/20 05:03:42;;;;;;;4.22;2.28;;;;;;;17.54;32.26;102169.16;31706787;28;20093;-62
2021/03/20 05:18:44;;;;;;;3.78;2.25;;;;;;;17.52;32.28;102168.38;31670912;28;20043;-63
2021/03/20 05:33:46;;;;;;;4.45;2.20;;;;;;;17.53;32.28;102170.09;31707837;28;20197;-63
2021/03/20 05:49:05;;;;;;;5.20;1.98;;;;;;;17.53;32.40;102173.56;31662398;28;20035;-62
2021/03/20 06:04:14;;;;;;;4.93;1.83;;;;;;;17.59;32.31;102180.25;31714255;28;20037;-63
2021/03/20 06:19:24;;;;;;;3.97;2.20;;;;;;;17.67;32.24;102199.06;31674015;28;20031;-63
2021/03/20 06:34:33;;;;;;;3.08;1.60;;;;;;;17.72;32.00;102207.56;31730245;28;20437;-63
2021/03/20 06:49:40;;;;;;;2.65;1.40;;;;;;;17.94;31.32;102190.59;31644606;28;20085;-63
2021/03/20 07:04:50;;;;;;;3.97;1.90;;;;;;;18.16;31.49;102177.88;31675819;28;20113;-62
2021/03/20 07:20:05;;;;;;;3.58;1.70;;;;;;;18.21;31.13;102174.97;31669871;28;20043;-63
2021/03/20 07:35:21;;;;;;;4.05;1.73;;;;;;;18.38;31.09;102193.22;31708985;28;20032;-63
2021/03/20 07:50:28;;;;;;;3.63;1.73;;;;;;;18.82;30.32;102189.72;31722794;27;20036;-62
2021/03/20 08:05:32;;;;;;;4.00;2.00;;;;;;;19.63;29.17;102194.28;31707466;28;20435;-62
2021/03/20 08:20:33;;;;;;;5.53;1.33;;;;;;;19.85;18.06;102192.88;31660325;27;20028;-61
2021/03/20 08:36:02;;;;;;;4.83;1.67;;;;;;;16.49;20.24;102206.28;31612103;27;20039;-61
2021/03/20 08:51:29;;;;;;;6.95;2.00;;;;;;;18.30;25.73;102200.75;31669111;27;20285;-63
2021/03/20 09:06:36;;;;;;;5.40;2.10;;;;;;;19.58;25.34;102206.06;31650487;27;20039;-63
2021/03/20 09:21:37;;;;;;;5.17;2.03;;;;;;;20.71;23.71;102198.50;31716859;28;20024;-62
2021/03/20 09:36:41;;;;;;;5.95;1.60;;;;;;;22.77;20.72;102212.47;31659456;28;20285;-61
2021/03/20 09:51:51;;;;;;;3.75;1.30;;;;;;;21.22;22.99;102205.50;31665199;28;20048;-62
2021/03/20 10:07:20;;;;;;;2.58;1.23;;;;;;;20.52;25.41;102198.03;31686856;27;20039;-62
2021/03/20 10:22:47;;;;;;;5.70;1.73;;;;;;;20.49;27.17;102188.53;31684235;28;20047;-64
2021/03/20 10:37:48;;;;;;;3.45;1.40;;;;;;;21.48;25.85;102181.63;31706513;28;20056;-63
2021/03/20 10:52:49;;;;;;;4.37;1.40;;;;;;;22.04;25.28;102167.78;31683032;28;20047;-65
2021/03/20 11:08:19;;;;;;;4.00;1.60;;;;;;;21.50;24.99;102140.03;31695130;28;20350;-64
2021/03/20 11:23:32;;;;;;;2.97;1.30;;;;;;;21.33;25.64;102131.50;31696779;27;20044;-65
2021/03/20 11:38:33;;;;;;;3.67;1.45;;;;;;;21.07;25.92;102108.78;31674825;28;20104;-65
2021/03/20 11:53:44;;;;;;;2.70;1.15;;;;;;;20.58;26.95;102093.81;31695841;27;20101;-64
2021/03/20 12:08:45;;;;;;;2.67;1.20;;;;;;;20.83;26.72;102066.47;31678349;27;20027;-63
2021/03/20 12:23:54;;;;;;;3.78;1.38;;;;;;;20.92;26.64;102050.78;31732134;27;20104;-63
2021/03/20 12:38:55;;;;;;;4.68;1.33;;;;;;;20.60;26.86;102036.44;31684388;28;20042;-63
2021/03/20 12:53:56;;;;;;;4.68;1.70;;;;;;;17.96;19.84;102023.84;31701128;28;20047;-63
2021/03/20 13:08:57;;;;;;;5.53;1.40;;;;;;;18.42;25.07;101991.19;31699400;28;20027;-63
2021/03/20 13:23:58;;;;;;;2.80;1.25;;;;;;;19.15;25.76;101972.44;31719159;28;20295;-64
2021/03/20 13:38:59;;;;;;;5.03;1.57;;;;;;;19.51;26.41;101972.69;31686753;28;20050;-64
2021/03/20 13:54:00;;;;;;;4.43;1.63;;;;;;;19.82;26.55;101943.28;31682923;28;20277;-64
2021/03/20 14:09:01;;;;;;;3.87;2.10;;;;;;;19.96;26.68;101928.28;31690449;28;20277;-62
2021/03/20 14:24:02;;;;;;;4.37;2.50;;;;;;;19.81;27.13;101899.41;31672590;28;20293;-62
2021/03/20 14:39:03;;;;;;;4.95;2.60;;;;;;;19.66;27.52;101882.81;31710727;28;20315;-62
2021/03/20 14:54:05;;;;;;;4.32;2.72;;;;;;;19.49;28.04;101869.97;31676631;28;20511;-63
2021/03/20 15:09:06;;;;;;;6.05;3.55;;;;;;;19.58;28.19;101853.50;31676465;28;20027;-61
2021/03/20 15:24:07;;;;;;;5.10;3.28;;;;;;;19.99;29.07;101840.97;31689899;28;20040;-60
2021/03/20 15:39:08;;;;;;;6.35;3.53;;;;;;;20.20;29.21;101809.53;31706608;28;20040;-61
2021/03/20 15:54:09;;;;;;;7.47;4.57;;;;;;;20.17;29.04;101786.84;31696371;27;20046;-59
2021/03/20 16:09:10;;;;;;;6.50;4.37;;;;;;;20.02;29.24;101762.44;31723773;27;20028;-59
2021/03/20 16:24:11;;;;;;;7.97;5.07;;;;;;;19.97;28.63;101748.72;31719738;27;20303;-60
2021/03/20 16:39:12;;;;;;;5.60;4.43;;;;;;;20.05;29.01;101741.09;31716098;27;20293;-61
2021/03/20 16:54:13;;;;;;;8.10;4.40;;;;;;;19.99;29.13;101728.34;31707869;27;20293;-61
2021/03/20 17:09:14;;;;;;;6.33;2.77;;;;;;;18.07;25.42;101711.88;31695449;27;20019;-64
2021/03/20 17:24:15;;;;;;;5.07;2.80;;;;;;;18.95;27.34;101696.28;31720040;27;20763;-62
2021/03/20 17:39:16;;;;;;;7.47;3.17;;;;;;;19.56;27.57;101670.81;31719010;27;20293;-61
2021/03/20 17:54:17;;;;;;;6.97;3.10;;;;;;;19.70;28.10;101669.84;31710883;28;20300;-61
2021/03/20 18:09:18;;;;;;;5.43;2.70;;;;;;;19.79;28.23;101647.19;31694536;27;20278;-63
2021/03/20 18:24:19;;;;;;;5.05;2.70;;;;;;;19.88;28.42;101615.72;31676232;28;20290;-63
2021/03/20 18:39:20;;;;;;;6.22;2.80;;;;;;;19.82;28.54;101594.22;31720963;28;20068;-62
2021/03/20 18:54:21;;;;;;;5.27;3.10;;;;;;;19.81;28.09;101574.94;31696458;28;20051;-62
2021/03/20 19:09:22;;;;;;;5.30;2.70;;;;;;;19.98;28.70;101573.63;31696851;28;20647;-62
2021/03/20 19:24:23;;;;;;;4.00;2.57;;;;;;;20.03;29.05;101550.38;31720948;27;20484;-61
2021/03/20 19:39:25;;;;;;;3.90;2.50;;;;;;;20.08;28.94;101534.19;31727073;27;20293;-62
2021/03/20 19:54:26;;;;;;;4.50;2.42;;;;;;;20.02;28.99;101509.13;31704009;27;20293;-61
2021/03/20 20:09:27;;;;;;;4.68;2.15;;;;;;;20.04;29.03;101479.94;31692601;27;20128;-64
2021/03/20 20:24:29;;;;;;;4.20;2.70;;;;;;;19.78;29.37;101471.44;31688251;27;20106;-62
2021/03/20 20:39:30;;;;;;;3.35;1.92;;;;;;;19.69;29.35;101457.16;31692061;27;20315;-62
2021/03/20 20:54:32;;;;;;;4.03;2.28;;;;;;;19.77;29.23;101441.59;31712142;27;20081;-62
2021/03/20 21:09:33;;;;;;;3.92;2.58;;;;;;;19.82;29.42;101412.22;31713067;27;20428;-61
2021/03/20 21:24:34;;;;;;;3.70;2.30;;;;;;;19.81;29.64;101387.63;31740640;28;20477;-63
2021/03/20 21:39:35;;;;;;;6.13;2.47;;;;;;;19.72;29.61;101364.59;31707173;28;20041;-62
2021/03/20 21:54:35;;;;;;;5.00;2.67;;;;;;;19.40;29.90;101332.78;31684021;27;20319;-62
2021/03/20 22:09:36;;;;;;;4.63;2.50;;;;;;;19.24;30.21;101304.16;31710940;28;20313;-61
2021/03/20 22:24:37;;;;;;;5.93;3.00;;;;;;;19.16;29.97;101267.88;31721997;28;20658;-62
2021/03/20 22:39:40;;;;;;;5.60;2.80;;;;;;;19.03;30.47;101231.09;31677348;28;20301;-65
2021/03/20 22:54:41;;;;;;;5.15;2.75;;;;;;;18.84;29.93;101180.78;31711107;27;20327;-66
2021/03/20 23:09:42;;;;;;;4.10;2.25;;;;;;;18.74;29.06;101171.91;31713524;27;20019;-65
2021/03/20 23:24:43;;;;;;;4.35;2.13;;;;;;;18.57;29.90;101144.25;31699524;27;20531;-64
2021/03/20 23:39:44;;;;;;;4.57;2.33;;;;;;;18.41;30.26;101118.25;31710931;28;20040;-63
2021/03/20 23:54:45;;;;;;;3.60;1.70;;;;;;;18.40;30.27;101088.47;31751293;27;20658;-63
